createdAt,value
2022-12-08T00:01:12.938Z,6.50
2022-12-08T00:03:40.245Z,6.50
2022-12-08T00:06:41.193Z,6.50
2022-12-08T00:09:39.065Z,6.40
2022-12-08T00:12:09.116Z,6.40
2022-12-08T00:14:38.837Z,6.30
2022-12-08T00:17:07.687Z,6.30
2022-12-08T00:19:34.745Z,6.30
2022-12-08T00:22:03.310Z,6.20
2022-12-08T00:24:33.234Z,6.20
2022-12-08T00:27:00.333Z,6.20
2022-12-08T00:29:27.470Z,6.20
2022-12-08T00:31:54.611Z,6.20
2022-12-08T00:34:21.725Z,6.20
2022-12-08T00:36:48.839Z,6.20
2022-12-08T00:39:17.844Z,6.20
2022-12-08T00:42:03.919Z,6.20
2022-12-08T00:44:30.951Z,6.10
2022-12-08T00:46:57.993Z,6.20
2022-12-08T00:49:25.063Z,6.20
2022-12-08T00:51:52.478Z,6.10
2022-12-08T00:54:20.047Z,6.20
2022-12-08T00:56:47.141Z,6.20
2022-12-08T00:59:14.220Z,6.10
2022-12-08T01:01:41.426Z,6.10
2022-12-08T01:04:11.983Z,6.10
2022-12-08T01:06:39.812Z,6.10
2022-12-08T01:09:08.679Z,6.10
2022-12-08T01:11:36.988Z,6.10
2022-12-08T01:14:04.434Z,6.10
2022-12-08T01:16:34.858Z,6.10
2022-12-08T01:19:02.389Z,6.10
2022-12-08T01:21:29.741Z,6.20
2022-12-08T01:23:58.038Z,6.10
2022-12-08T01:26:25.065Z,6.10
2022-12-08T01:28:52.124Z,6.10
2022-12-08T01:31:21.228Z,6.10
2022-12-08T01:33:48.986Z,6.10
2022-12-08T01:36:23.347Z,6.10
2022-12-08T01:38:51.538Z,6.20
2022-12-08T01:41:22.811Z,6.20
2022-12-08T01:44:08.211Z,6.20
2022-12-08T01:46:40.325Z,6.20
2022-12-08T01:49:29.659Z,6.20
2022-12-08T01:52:03.237Z,6.30
2022-12-08T01:54:34.877Z,6.30
2022-12-08T01:57:13.736Z,6.30
2022-12-08T01:59:48.114Z,6.30
2022-12-08T02:02:15.464Z,6.20
2022-12-08T02:04:42.550Z,6.20
2022-12-08T02:07:11.959Z,6.20
2022-12-08T02:09:40.660Z,6.20
2022-12-08T02:12:08.718Z,6.20
2022-12-08T02:14:36.063Z,6.20
2022-12-08T02:17:03.036Z,6.20
2022-12-08T02:20:00.957Z,6.20
2022-12-08T02:22:40.048Z,6.20
2022-12-08T02:25:25.089Z,6.20
2022-12-08T02:28:00.781Z,6.20
2022-12-08T02:30:33.945Z,6.20
2022-12-08T02:33:25.638Z,6.20
2022-12-08T02:36:09.243Z,6.10
2022-12-08T02:39:16.042Z,6.10
2022-12-08T02:41:53.976Z,6.00
2022-12-08T02:44:27.042Z,6.00
2022-12-08T02:47:09.067Z,6.00
2022-12-08T02:49:36.222Z,6.00
2022-12-08T02:52:32.163Z,6.10
2022-12-08T02:55:22.722Z,6.10
2022-12-08T02:58:11.007Z,6.10
2022-12-08T03:01:08.461Z,6.10
2022-12-08T03:04:04.906Z,6.10
2022-12-08T03:07:04.530Z,6.20
2022-12-08T03:09:47.745Z,6.20
2022-12-08T03:12:21.672Z,6.20
2022-12-08T03:14:53.621Z,6.20
2022-12-08T03:17:23.200Z,6.20
2022-12-08T03:19:50.490Z,6.20
2022-12-08T03:22:22.496Z,6.20
2022-12-08T03:24:50.145Z,6.20
2022-12-08T03:27:21.692Z,6.20
2022-12-08T03:29:51.215Z,6.20
2022-12-08T03:32:29.110Z,6.20
2022-12-08T03:34:58.316Z,6.30
2022-12-08T03:37:27.595Z,6.20
2022-12-08T03:39:54.827Z,6.30
2022-12-08T03:42:22.205Z,6.30
2022-12-08T03:44:49.161Z,6.20
2022-12-08T03:47:16.186Z,6.20
2022-12-08T03:49:43.224Z,6.20
2022-12-08T03:52:10.253Z,6.20
2022-12-08T03:54:37.425Z,6.20
2022-12-08T03:57:04.452Z,6.10
2022-12-08T03:59:31.460Z,6.20
2022-12-08T04:01:58.514Z,6.10
2022-12-08T04:04:25.542Z,6.00
2022-12-08T04:06:52.644Z,6.00
2022-12-08T04:09:19.720Z,6.00
2022-12-08T04:11:46.723Z,6.00
2022-12-08T04:14:13.877Z,6.00
2022-12-08T04:16:41.383Z,6.00
2022-12-08T04:19:08.537Z,6.00
2022-12-08T04:21:35.601Z,5.90
2022-12-08T04:24:02.974Z,5.90
2022-12-08T04:26:30.065Z,5.80
2022-12-08T04:28:57.282Z,5.80
2022-12-08T04:31:24.486Z,5.80
2022-12-08T04:33:51.565Z,5.70
2022-12-08T04:36:18.680Z,5.70
2022-12-08T04:38:45.743Z,5.70
2022-12-08T04:41:12.767Z,5.70
2022-12-08T04:43:41.187Z,5.70
2022-12-08T04:46:09.393Z,5.70
2022-12-08T04:48:40.082Z,5.70
2022-12-08T04:51:07.552Z,5.80
2022-12-08T04:53:34.594Z,5.80
2022-12-08T04:56:01.592Z,5.80
2022-12-08T04:58:28.586Z,5.90
2022-12-08T05:00:55.658Z,5.90
2022-12-08T05:03:28.245Z,6.00
2022-12-08T05:05:55.855Z,6.00
2022-12-08T05:08:23.084Z,5.90
2022-12-08T05:10:50.185Z,5.90
2022-12-08T05:13:17.183Z,5.90
2022-12-08T05:15:44.332Z,5.90
2022-12-08T05:18:11.460Z,6.00
2022-12-08T05:20:38.539Z,5.90
2022-12-08T05:23:05.630Z,5.90
2022-12-08T05:25:32.720Z,5.90
2022-12-08T05:28:24.579Z,5.90
2022-12-08T05:30:46.883Z,5.90
2022-12-08T05:33:14.169Z,5.90
2022-12-08T05:35:41.473Z,6.00
2022-12-08T05:38:08.812Z,5.90
2022-12-08T05:40:38.939Z,5.90
2022-12-08T05:43:06.347Z,5.90
2022-12-08T05:45:33.998Z,5.80
2022-12-08T05:48:01.298Z,5.80
2022-12-08T05:50:28.457Z,5.80
2022-12-08T05:52:57.369Z,5.80
2022-12-08T05:55:24.440Z,5.80
2022-12-08T05:57:51.504Z,5.80
2022-12-08T06:00:19.175Z,5.80
2022-12-08T06:02:46.434Z,5.80
2022-12-08T06:05:13.490Z,5.90
2022-12-08T06:07:40.544Z,5.90
2022-12-08T06:10:08.155Z,5.90
2022-12-08T06:12:35.267Z,5.90
2022-12-08T06:15:02.295Z,5.90
2022-12-08T06:17:29.260Z,5.90
2022-12-08T06:19:56.599Z,5.90
2022-12-08T06:22:23.601Z,5.90
2022-12-08T06:24:50.660Z,5.90
2022-12-08T06:27:17.605Z,6.00
2022-12-08T06:29:44.624Z,5.90
2022-12-08T06:32:12.346Z,5.90
2022-12-08T06:34:39.385Z,5.90
2022-12-08T06:37:06.457Z,5.90
2022-12-08T06:39:33.555Z,5.80
2022-12-08T06:42:18.928Z,5.80
2022-12-08T06:44:46.095Z,5.80
2022-12-08T06:47:13.178Z,5.90
2022-12-08T06:49:40.816Z,5.90
2022-12-08T06:52:07.805Z,5.90
2022-12-08T06:54:34.965Z,6.00
2022-12-08T06:57:02.031Z,6.00
2022-12-08T06:59:29.104Z,6.10
2022-12-08T07:01:56.240Z,6.10
2022-12-08T07:04:23.431Z,6.20
2022-12-08T07:06:50.579Z,6.20
2022-12-08T07:09:17.595Z,6.20
2022-12-08T07:11:44.633Z,6.30
2022-12-08T07:14:13.486Z,6.30
2022-12-08T07:16:40.544Z,6.30
2022-12-08T07:19:07.758Z,6.40
2022-12-08T07:21:34.796Z,6.40
2022-12-08T07:24:02.745Z,6.40
2022-12-08T07:26:29.760Z,6.50
2022-12-08T07:28:56.810Z,6.50
2022-12-08T07:31:25.564Z,6.50
2022-12-08T07:33:53.398Z,6.50
2022-12-08T07:36:20.613Z,6.60
2022-12-08T07:38:48.203Z,6.60
2022-12-08T07:41:23.213Z,6.60
2022-12-08T07:43:51.133Z,6.70
2022-12-08T07:46:20.659Z,6.70
2022-12-08T07:48:48.240Z,6.80
2022-12-08T07:51:16.715Z,6.80
2022-12-08T07:53:50.052Z,6.80
2022-12-08T07:56:20.799Z,6.80
2022-12-08T07:58:47.820Z,6.80
2022-12-08T08:01:30.117Z,6.90
2022-12-08T08:04:01.845Z,6.90
2022-12-08T08:06:29.223Z,6.90
2022-12-08T08:08:56.241Z,6.90
2022-12-08T08:11:23.808Z,7.00
2022-12-08T08:13:51.805Z,7.00
2022-12-08T08:16:19.361Z,7.10
2022-12-08T08:18:49.458Z,7.10
2022-12-08T08:24:05.353Z,7.20
2022-12-08T08:26:32.480Z,7.20
2022-12-08T08:28:59.578Z,7.20
2022-12-08T08:31:27.439Z,7.20
2022-12-08T08:33:57.205Z,7.30
2022-12-08T08:36:24.423Z,7.30
2022-12-08T08:38:51.437Z,7.30
2022-12-08T08:41:18.458Z,7.30
2022-12-08T08:43:45.548Z,7.30
2022-12-08T08:46:12.747Z,7.30
2022-12-08T08:48:39.874Z,7.40
2022-12-08T08:51:09.661Z,7.40
2022-12-08T08:53:36.875Z,7.40
2022-12-08T08:56:05.283Z,7.40
2022-12-08T08:58:32.390Z,7.40
2022-12-08T09:00:59.436Z,7.50
2022-12-08T09:03:26.861Z,7.50
2022-12-08T09:05:55.972Z,7.60
2022-12-08T09:08:24.103Z,7.60
2022-12-08T09:10:51.365Z,7.60
2022-12-08T09:13:18.399Z,7.60
2022-12-08T09:15:45.701Z,7.50
2022-12-08T09:18:12.763Z,7.50
2022-12-08T09:20:40.174Z,7.50
2022-12-08T09:23:07.184Z,7.50
2022-12-08T09:25:34.179Z,7.50
2022-12-08T09:28:01.258Z,7.50
2022-12-08T09:30:28.314Z,7.50
2022-12-08T09:32:55.374Z,7.50
2022-12-08T09:35:22.504Z,7.40
2022-12-08T09:37:49.542Z,7.40
2022-12-08T09:40:19.443Z,7.50
2022-12-08T09:43:19.630Z,7.50
2022-12-08T09:45:48.672Z,7.60
2022-12-08T09:48:19.940Z,7.70
2022-12-08T09:50:50.081Z,7.70
2022-12-08T09:53:35.218Z,7.70
2022-12-08T09:56:02.798Z,7.80
2022-12-08T09:58:52.686Z,7.90
2022-12-08T10:01:22.185Z,7.90
2022-12-08T10:03:50.217Z,7.90
2022-12-08T10:06:49.428Z,8.00
2022-12-08T10:09:28.274Z,8.10
2022-12-08T10:12:05.616Z,8.20
2022-12-08T10:14:47.269Z,8.30
2022-12-08T10:17:23.827Z,8.50
2022-12-08T10:19:57.193Z,8.60
2022-12-08T10:22:26.927Z,8.80
2022-12-08T10:25:17.246Z,8.90
2022-12-08T10:27:44.665Z,9.00
2022-12-08T10:30:16.039Z,9.00
2022-12-08T10:32:46.632Z,9.00
2022-12-08T10:35:16.360Z,9.00
2022-12-08T10:37:57.478Z,8.90
2022-12-08T10:40:27.672Z,8.80
2022-12-08T10:42:58.208Z,8.70
2022-12-08T10:45:26.972Z,8.50
2022-12-08T10:48:13.689Z,8.50
2022-12-08T10:50:58.256Z,8.50
2022-12-08T10:53:30.889Z,8.40
2022-12-08T10:56:04.058Z,8.40
2022-12-08T10:58:35.936Z,8.40
2022-12-08T11:01:24.157Z,8.40
2022-12-08T11:04:01.617Z,8.50
2022-12-08T11:06:34.258Z,8.60
2022-12-08T11:09:21.963Z,8.60
2022-12-08T11:11:53.531Z,8.70
2022-12-08T11:14:42.272Z,8.80
2022-12-08T11:17:16.826Z,8.80
2022-12-08T11:20:01.686Z,8.80
2022-12-08T11:22:38.834Z,8.80
2022-12-08T11:25:08.646Z,8.80
2022-12-08T11:27:38.783Z,8.80
2022-12-08T11:30:17.161Z,8.90
2022-12-08T11:32:47.351Z,8.80
2022-12-08T11:35:29.510Z,8.90
2022-12-08T11:38:20.464Z,8.90
2022-12-08T11:40:52.678Z,9.00
2022-12-08T11:43:34.793Z,9.00
2022-12-08T11:46:27.491Z,9.10
2022-12-08T11:49:06.684Z,9.20
2022-12-08T11:51:36.059Z,9.40
2022-12-08T11:54:22.752Z,9.60
2022-12-08T11:57:03.892Z,9.80
2022-12-08T11:59:47.025Z,10.00
2022-12-08T12:02:21.447Z,10.10
2022-12-08T12:04:49.403Z,10.30
2022-12-08T12:07:26.218Z,10.30
2022-12-08T12:10:14.919Z,10.30
2022-12-08T12:12:49.010Z,10.30
2022-12-08T12:15:34.990Z,10.30
2022-12-08T12:18:16.943Z,10.40
2022-12-08T12:21:22.863Z,10.40
2022-12-08T12:23:56.577Z,10.40
2022-12-08T12:26:26.413Z,10.50
2022-12-08T12:29:07.011Z,10.50
2022-12-08T12:31:43.114Z,10.60
2022-12-08T12:34:33.219Z,10.60
2022-12-08T12:37:13.062Z,10.40
2022-12-08T12:40:20.747Z,10.30
2022-12-08T12:42:55.382Z,10.00
2022-12-08T12:45:22.384Z,9.90
2022-12-08T12:47:57.333Z,9.90
2022-12-08T12:50:45.314Z,9.90
2022-12-08T12:53:18.957Z,9.90
2022-12-08T12:55:46.167Z,9.90
2022-12-08T12:58:29.909Z,10.00
2022-12-08T13:01:15.164Z,10.00
2022-12-08T13:03:45.702Z,10.00
2022-12-08T13:06:15.327Z,10.00
2022-12-08T13:08:51.992Z,10.00
2022-12-08T13:11:19.450Z,10.00
2022-12-08T13:14:03.250Z,10.00
2022-12-08T13:16:37.516Z,10.00
2022-12-08T13:19:11.875Z,9.90
2022-12-08T13:21:39.842Z,9.90
2022-12-08T13:24:14.472Z,9.80
2022-12-08T13:27:04.476Z,9.80
2022-12-08T13:29:35.762Z,9.80
2022-12-08T13:32:28.694Z,9.80
2022-12-08T13:35:00.301Z,9.80
2022-12-08T13:37:53.895Z,9.80
2022-12-08T13:40:25.441Z,9.90
2022-12-08T13:43:08.536Z,9.90
2022-12-08T13:46:41.983Z,9.90
2022-12-08T13:49:52.763Z,10.00
2022-12-08T13:53:22.399Z,10.00
2022-12-08T13:57:32.754Z,10.10
2022-12-08T14:00:05.252Z,10.10
2022-12-08T14:02:48.155Z,10.10
2022-12-08T14:05:34.830Z,10.10
2022-12-08T14:08:30.150Z,10.20
2022-12-08T14:11:06.249Z,10.30
2022-12-08T14:13:34.353Z,10.30
2022-12-08T14:16:02.525Z,10.40
2022-12-08T14:18:31.795Z,10.40
2022-12-08T14:21:21.207Z,10.40
2022-12-08T14:23:48.912Z,10.40
2022-12-08T14:26:15.938Z,10.40
2022-12-08T14:28:45.294Z,10.30
2022-12-08T14:31:14.765Z,10.30
2022-12-08T14:33:42.617Z,10.20
2022-12-08T14:36:11.105Z,10.10
2022-12-08T14:38:38.286Z,10.00
2022-12-08T14:41:11.666Z,9.90
2022-12-08T14:43:41.047Z,9.90
2022-12-08T14:46:22.995Z,9.90
2022-12-08T14:48:50.264Z,9.90
2022-12-08T14:51:22.949Z,9.80
2022-12-08T14:54:02.752Z,9.80
2022-12-08T14:56:50.356Z,9.80
2022-12-08T14:59:28.893Z,9.70
2022-12-08T15:02:16.113Z,9.70
2022-12-08T15:04:46.419Z,9.60
2022-12-08T15:07:19.271Z,9.50
2022-12-08T15:10:11.051Z,9.50
2022-12-08T15:12:38.146Z,9.40
2022-12-08T15:15:08.581Z,9.30
2022-12-08T15:17:43.303Z,9.20
2022-12-08T15:20:34.573Z,9.10
2022-12-08T15:23:03.085Z,9.00
2022-12-08T15:25:30.276Z,8.90
2022-12-08T15:27:58.164Z,8.80
2022-12-08T15:30:26.539Z,8.70
2022-12-08T15:32:56.066Z,8.70
2022-12-08T15:35:23.425Z,8.60
2022-12-08T15:37:50.466Z,8.50
2022-12-08T15:40:20.030Z,8.50
2022-12-08T15:42:47.441Z,8.50
2022-12-08T15:45:15.743Z,8.40
2022-12-08T15:47:43.696Z,8.30
2022-12-08T15:50:19.535Z,8.30
2022-12-08T15:52:47.256Z,8.30
2022-12-08T15:55:18.833Z,8.20
2022-12-08T15:58:51.667Z,8.20
2022-12-08T16:00:54.422Z,8.20
2022-12-08T16:09:15.300Z,8.10
2022-12-08T16:12:10.090Z,8.00
2022-12-08T16:17:26.507Z,7.90
2022-12-08T16:19:54.299Z,7.90
2022-12-08T16:25:20.336Z,7.80
2022-12-08T16:30:37.013Z,7.70
2022-12-08T16:33:04.513Z,7.70
2022-12-08T16:35:31.787Z,7.70
2022-12-08T16:37:59.062Z,7.60
2022-12-08T16:40:26.100Z,7.60
2022-12-08T16:42:53.586Z,7.60
2022-12-08T16:45:20.559Z,7.60
2022-12-08T16:47:56.048Z,7.50
2022-12-08T16:50:29.373Z,7.50
2022-12-08T16:53:01.486Z,7.60
2022-12-08T16:55:28.836Z,7.60
2022-12-08T16:57:56.230Z,7.60
2022-12-08T17:00:25.533Z,7.60
2022-12-08T17:02:52.973Z,7.70
2022-12-08T17:05:22.489Z,7.70
2022-12-08T17:07:51.742Z,7.70
2022-12-08T17:10:23.004Z,7.80
2022-12-08T17:12:50.726Z,7.80
2022-12-08T17:15:20.780Z,7.80
2022-12-08T17:17:47.796Z,7.90
2022-12-08T17:20:20.647Z,7.90
2022-12-08T17:22:48.013Z,7.90
2022-12-08T17:25:15.197Z,7.90
2022-12-08T17:27:42.697Z,7.90
2022-12-08T17:30:12.606Z,7.90
2022-12-08T17:32:39.697Z,7.90
2022-12-08T17:35:07.598Z,7.90
2022-12-08T17:37:35.045Z,7.90
2022-12-08T17:40:02.460Z,7.90
2022-12-08T17:42:29.710Z,7.90
2022-12-08T17:44:56.760Z,7.90
2022-12-08T17:47:23.901Z,8.00
2022-12-08T17:49:51.091Z,8.00
2022-12-08T17:52:18.085Z,8.00
2022-12-08T17:54:45.070Z,8.00
2022-12-08T17:57:12.106Z,8.00
2022-12-08T17:59:39.178Z,8.00
2022-12-08T18:02:06.738Z,8.10
2022-12-08T18:04:33.790Z,8.10
2022-12-08T18:07:01.380Z,8.10
2022-12-08T18:09:31.401Z,8.00
2022-12-08T18:11:58.600Z,8.10
2022-12-08T18:14:25.933Z,8.10
2022-12-08T18:16:53.165Z,8.10
2022-12-08T18:19:20.343Z,8.10
2022-12-08T18:21:47.386Z,8.10
2022-12-08T18:24:21.896Z,8.10
2022-12-08T18:26:50.712Z,8.00
2022-12-08T18:29:18.076Z,8.10
2022-12-08T18:31:45.234Z,8.10
2022-12-08T18:34:12.263Z,8.10
2022-12-08T18:36:39.355Z,8.10
2022-12-08T18:39:10.722Z,8.10
2022-12-08T18:41:38.172Z,8.10
2022-12-08T18:44:05.199Z,8.10
2022-12-08T18:46:32.274Z,8.10
2022-12-08T18:48:59.562Z,8.10
2022-12-08T18:51:26.730Z,8.20
2022-12-08T18:53:53.881Z,8.20
2022-12-08T18:56:26.626Z,8.20
2022-12-08T18:59:01.258Z,8.20
2022-12-08T19:01:31.087Z,8.20
2022-12-08T19:04:26.735Z,8.20
2022-12-08T19:06:46.578Z,8.20
2022-12-08T19:09:14.211Z,8.20
2022-12-08T19:11:42.113Z,8.20
2022-12-08T19:14:09.931Z,8.20
2022-12-08T19:16:37.161Z,8.20
2022-12-08T19:19:04.903Z,8.20
2022-12-08T19:21:32.547Z,8.20
2022-12-08T19:24:00.106Z,8.20
2022-12-08T19:26:28.621Z,8.10
2022-12-08T19:28:55.853Z,8.10
2022-12-08T19:31:22.984Z,8.10
2022-12-08T19:33:50.163Z,8.10
2022-12-08T19:36:19.744Z,8.10
2022-12-08T19:39:06.057Z,8.10
2022-12-08T19:41:52.328Z,8.10
2022-12-08T19:44:40.535Z,8.10
2022-12-08T19:47:07.820Z,8.10
2022-12-08T19:49:35.203Z,8.10
2022-12-08T19:52:02.361Z,8.10
2022-12-08T19:54:29.366Z,8.10
2022-12-08T19:56:56.653Z,8.00
2022-12-08T19:59:26.471Z,8.00
2022-12-08T20:01:55.938Z,8.00
2022-12-08T20:04:24.619Z,8.00
2022-12-08T20:06:53.469Z,8.00
2022-12-08T20:09:21.119Z,8.00
2022-12-08T20:11:48.585Z,8.00
2022-12-08T20:14:15.622Z,8.00
2022-12-08T20:16:42.747Z,8.00
2022-12-08T20:19:09.919Z,8.00
2022-12-08T20:21:37.013Z,8.00
2022-12-08T20:24:04.736Z,8.00
2022-12-08T20:26:31.967Z,8.00
2022-12-08T20:28:59.109Z,8.00
2022-12-08T20:31:28.582Z,8.00
2022-12-08T20:33:56.130Z,8.00
2022-12-08T20:36:23.297Z,8.00
2022-12-08T20:38:52.235Z,8.00
2022-12-08T20:41:20.278Z,8.00
2022-12-08T20:43:48.798Z,8.00
2022-12-08T20:46:17.506Z,8.10
2022-12-08T20:48:45.023Z,8.10
2022-12-08T20:51:18.399Z,8.10
2022-12-08T20:53:46.054Z,8.10
2022-12-08T20:56:18.643Z,8.10
2022-12-08T20:58:46.080Z,8.10
2022-12-08T21:01:15.433Z,8.10
2022-12-08T21:03:44.201Z,8.10
2022-12-08T21:06:12.160Z,8.10
2022-12-08T21:08:40.819Z,8.00
2022-12-08T21:11:09.145Z,8.00
2022-12-08T21:13:39.846Z,8.00
2022-12-08T21:16:09.314Z,8.00
2022-12-08T21:18:39.717Z,8.00
2022-12-08T21:21:11.007Z,8.00
2022-12-08T21:23:38.416Z,8.00
2022-12-08T21:26:14.376Z,8.00
2022-12-08T21:28:41.953Z,8.00
2022-12-08T21:31:11.250Z,8.00
2022-12-08T21:33:38.821Z,8.00
2022-12-08T21:36:13.101Z,8.00
2022-12-08T21:38:40.964Z,8.00
2022-12-08T21:41:14.200Z,8.10
2022-12-08T21:43:42.184Z,8.10
2022-12-08T21:46:20.840Z,8.00
2022-12-08T21:48:48.163Z,8.10
2022-12-08T21:51:15.469Z,8.10
2022-12-08T21:53:42.673Z,8.10
2022-12-08T21:56:10.022Z,8.10
2022-12-08T21:58:37.928Z,8.10
2022-12-08T22:01:06.767Z,8.10
2022-12-08T22:03:34.131Z,8.10
2022-12-08T22:06:19.744Z,8.00
2022-12-08T22:08:47.234Z,8.00
2022-12-08T22:11:14.367Z,8.00
2022-12-08T22:13:42.046Z,7.90
2022-12-08T22:16:11.576Z,7.90
2022-12-08T22:18:39.207Z,7.90
2022-12-08T22:21:15.980Z,7.90
2022-12-08T22:23:44.055Z,7.90
2022-12-08T22:26:11.864Z,7.90
2022-12-08T22:28:41.089Z,7.90
2022-12-08T22:31:14.310Z,7.80
2022-12-08T22:33:42.630Z,7.80
2022-12-08T22:36:24.497Z,7.80
2022-12-08T22:38:52.916Z,7.80
2022-12-08T22:41:21.434Z,7.80
2022-12-08T22:43:49.324Z,7.80
2022-12-08T22:46:19.939Z,7.80
2022-12-08T22:48:47.462Z,7.80
2022-12-08T22:51:15.256Z,7.80
2022-12-08T22:53:42.483Z,7.80
2022-12-08T22:56:11.487Z,7.90
2022-12-08T22:58:39.884Z,7.90
2022-12-08T23:01:07.759Z,7.90
2022-12-08T23:03:34.990Z,7.90
2022-12-08T23:06:02.582Z,7.90
2022-12-08T23:08:30.111Z,7.90
2022-12-08T23:10:58.071Z,8.00
2022-12-08T23:13:25.266Z,8.00
2022-12-08T23:15:52.586Z,7.90
2022-12-08T23:18:20.013Z,8.00
2022-12-08T23:20:47.841Z,7.90
2022-12-08T23:23:15.496Z,8.00
2022-12-08T23:25:43.846Z,7.90
2022-12-08T23:28:11.389Z,7.90
2022-12-08T23:30:41.828Z,7.90
2022-12-08T23:33:09.331Z,7.80
2022-12-08T23:35:36.508Z,7.80
2022-12-08T23:38:03.793Z,7.90
2022-12-08T23:40:30.847Z,7.80
2022-12-08T23:42:57.878Z,7.80
2022-12-08T23:45:25.172Z,7.80
2022-12-08T23:47:52.461Z,7.80
2022-12-08T23:50:19.630Z,7.80
2022-12-08T23:52:46.815Z,7.80
2022-12-08T23:55:13.819Z,7.80
2022-12-08T23:57:41.017Z,7.80
